Time;durP1;ratioP1;P1;durP2;ratioP2;P2;SDS_P1;SDS_P2;PMS_P1;PMS_P2;Temp;Humidity;BMP_temperature;BMP_pressure;BME280_temperature;BME280_humidity;BME280_pressure;Samples;Min_cycle;Max_cycle;Signal;HPM_P1;HPM_P2
2022/06/09 00:01:33;;;;;;;29.77;19.20;;;14.60;99.90;;;;;;5021049;28;20042;-56
2022/06/09 00:04:06;;;;;;;28.92;18.15;;;14.50;99.90;;;;;;5019773;28;20076;-58
2022/06/09 00:06:38;;;;;;;31.30;18.15;;;14.50;99.90;;;;;;5020096;28;20075;-58
2022/06/09 00:09:05;;;;;;;33.17;17.33;;;14.60;99.90;;;;;;5020963;28;20053;-59
2022/06/09 00:11:35;;;;;;;40.42;20.42;;;14.60;99.90;;;;;;5019151;28;20054;-58
2022/06/09 00:14:01;;;;;;;40.85;19.65;;;14.70;99.90;;;;;;5020526;28;20049;-58
2022/06/09 00:16:27;;;;;;;44.20;21.42;;;14.70;99.90;;;;;;5019319;28;20054;-59
2022/06/09 00:18:53;;;;;;;39.92;19.63;;;14.60;99.90;;;;;;5020374;28;20049;-58
2022/06/09 00:21:19;;;;;;;49.03;21.65;;;14.60;99.90;;;;;;5019904;28;20106;-58
2022/06/09 00:23:44;;;;;;;38.45;18.42;;;14.70;99.90;;;;;;5019728;28;20049;-58
2022/06/09 00:26:10;;;;;;;40.72;19.80;;;14.50;99.90;;;;;;5020713;28;20092;-58
2022/06/09 00:28:36;;;;;;;45.78;19.25;;;14.70;99.90;;;;;;5018983;28;20060;-58
2022/06/09 00:31:02;;;;;;;51.70;19.05;;;14.70;99.90;;;;;;5020936;28;20056;-58
2022/06/09 00:33:27;;;;;;;41.42;18.08;;;14.60;99.90;;;;;;5001357;28;20045;-58
2022/06/09 00:35:53;;;;;;;48.13;18.17;;;14.50;99.90;;;;;;5020627;28;20069;-57
2022/06/09 00:38:18;;;;;;;50.30;20.88;;;14.40;99.90;;;;;;5019448;28;20041;-57
2022/06/09 00:40:44;;;;;;;46.00;18.67;;;14.60;99.90;;;;;;5020106;28;20065;-58
2022/06/09 00:43:10;;;;;;;44.70;18.70;;;14.40;99.90;;;;;;5020042;28;20042;-58
2022/06/09 00:45:37;;;;;;;44.30;20.08;;;14.50;99.90;;;;;;5019008;28;20050;-58
2022/06/09 00:48:37;;;;;;;44.13;19.85;;;14.40;99.90;;;;;;5020685;28;20109;-58
2022/06/09 00:51:25;;;;;;;46.05;19.70;;;14.30;99.90;;;;;;5021888;28;20050;-59
2022/06/09 00:53:57;;;;;;;51.97;21.08;;;14.50;99.90;;;;;;5022066;28;20050;-59
2022/06/09 00:56:24;;;;;;;48.53;21.20;;;14.40;99.90;;;;;;5024345;28;20050;-59
2022/06/09 00:58:52;;;;;;;39.78;18.88;;;14.40;99.90;;;;;;5022504;28;20046;-59
2022/06/09 01:01:19;;;;;;;55.83;21.52;;;14.40;99.90;;;;;;5022863;28;20052;-59
2022/06/09 01:04:08;;;;;;;44.08;20.13;;;14.40;99.90;;;;;;5022571;28;20046;-58
2022/06/09 01:06:41;;;;;;;58.03;21.23;;;14.30;99.90;;;;;;5023103;28;20054;-57
2022/06/09 01:09:18;;;;;;;41.42;19.77;;;14.40;99.90;;;;;;5023921;28;20080;-58
2022/06/09 01:11:47;;;;;;;51.15;20.27;;;14.40;99.90;;;;;;5022128;28;20129;-59
2022/06/09 01:14:16;;;;;;;63.05;22.13;;;14.40;99.90;;;;;;5023673;28;20050;-58
2022/06/09 01:17:09;;;;;;;48.40;18.17;;;14.40;99.90;;;;;;5022574;28;20042;-58
2022/06/09 01:20:06;;;;;;;51.50;20.25;;;14.20;99.90;;;;;;5022583;28;20074;-59
2022/06/09 01:22:55;;;;;;;47.15;19.52;;;14.30;99.90;;;;;;5023954;28;20050;-59
2022/06/09 01:26:05;;;;;;;53.25;20.83;;;14.20;99.90;;;;;;5022495;28;20054;-58
2022/06/09 01:28:33;;;;;;;39.45;16.67;;;14.30;99.90;;;;;;5022301;28;20081;-59
2022/06/09 01:31:01;;;;;;;47.30;20.67;;;14.20;99.90;;;;;;5023650;28;20064;-58
2022/06/09 01:34:08;;;;;;;58.63;22.05;;;14.20;99.90;;;;;;5022048;28;20050;-59
2022/06/09 01:36:44;;;;;;;50.58;21.02;;;14.30;99.90;;;;;;4942388;29;20284;-58
2022/06/09 01:39:09;;;;;;;54.10;19.27;;;14.30;99.90;;;;;;4943218;29;20059;-58
2022/06/09 01:41:35;;;;;;;48.80;22.13;;;14.10;99.90;;;;;;4984177;28;20053;-58
2022/06/09 01:44:02;;;;;;;47.30;21.13;;;14.30;99.90;;;;;;5023086;28;20088;-58
2022/06/09 01:46:34;;;;;;;47.13;20.40;;;14.20;99.90;;;;;;5021944;28;20588;-57
2022/06/09 01:49:13;;;;;;;48.17;18.80;;;14.20;99.90;;;;;;5022847;28;20076;-57
2022/06/09 01:51:42;;;;;;;49.53;20.35;;;14.20;99.90;;;;;;5023048;28;20042;-57
2022/06/09 01:54:23;;;;;;;51.08;20.58;;;14.20;99.90;;;;;;5021616;28;20066;-58
2022/06/09 01:56:50;;;;;;;43.15;19.25;;;14.20;99.90;;;;;;5023273;28;20061;-58
2022/06/09 01:59:23;;;;;;;44.58;22.15;;;14.20;99.90;;;;;;5021605;28;20064;-58
2022/06/09 02:02:03;;;;;;;45.47;21.58;;;14.10;99.90;;;;;;5022065;28;20046;-58
2022/06/09 02:04:58;;;;;;;48.50;22.60;;;14.20;99.90;;;;;;5022599;28;20057;-58
2022/06/09 02:07:27;;;;;;;53.53;27.05;;;14.00;99.90;;;;;;5018942;28;20054;-57
2022/06/09 02:09:54;;;;;;;52.92;25.58;;;14.20;99.90;;;;;;5022636;28;20046;-58
2022/06/09 02:12:25;;;;;;;51.33;25.27;;;14.10;99.90;;;;;;5021783;28;20096;-58
2022/06/09 02:14:54;;;;;;;49.80;24.48;;;14.00;99.90;;;;;;5021759;28;20092;-58
2022/06/09 02:17:20;;;;;;;57.85;25.58;;;13.90;99.90;;;;;;5022425;28;20569;-57
2022/06/09 02:19:49;;;;;;;61.55;28.02;;;14.00;99.90;;;;;;5021346;28;20046;-58
2022/06/09 02:22:15;;;;;;;58.78;28.02;;;14.10;99.90;;;;;;5022646;28;20034;-58
2022/06/09 02:24:41;;;;;;;55.22;27.77;;;13.90;99.90;;;;;;5020967;28;20332;-58
2022/06/09 02:27:07;;;;;;;56.28;28.42;;;14.00;99.90;;;;;;5022491;28;20065;-58
2022/06/09 02:29:33;;;;;;;59.47;29.17;;;14.10;99.90;;;;;;5021121;28;20046;-57
2022/06/09 02:31:59;;;;;;;57.42;28.00;;;14.10;99.90;;;;;;5021942;28;20100;-57
2022/06/09 02:34:25;;;;;;;58.55;27.90;;;14.10;99.90;;;;;;5004400;28;20046;-58
2022/06/09 02:36:51;;;;;;;53.92;28.17;;;14.10;99.90;;;;;;5021203;28;20046;-57
2022/06/09 02:39:17;;;;;;;46.75;23.25;;;14.10;99.90;;;;;;5022383;28;20054;-58
2022/06/09 02:41:43;;;;;;;54.90;26.30;;;14.10;99.90;;;;;;5020848;28;20120;-58
2022/06/09 02:44:09;;;;;;;51.65;26.55;;;14.00;99.90;;;;;;5021744;28;20046;-58
2022/06/09 02:46:35;;;;;;;59.92;29.77;;;14.00;99.90;;;;;;5020974;28;20030;-58
2022/06/09 02:49:00;;;;;;;61.80;28.23;;;13.90;99.90;;;;;;5021705;28;20046;-57
2022/06/09 02:51:30;;;;;;;53.65;28.50;;;14.00;99.90;;;;;;5021616;28;20034;-58
2022/06/09 02:53:58;;;;;;;52.28;26.65;;;14.00;99.90;;;;;;5020817;28;20054;-58
2022/06/09 02:56:24;;;;;;;57.20;29.02;;;14.10;99.90;;;;;;5021917;28;20068;-58
2022/06/09 02:58:51;;;;;;;58.42;28.17;;;14.10;99.90;;;;;;5020366;28;20053;-58
2022/06/09 03:01:17;;;;;;;55.53;26.98;;;14.10;99.90;;;;;;5021857;28;20490;-58
2022/06/09 03:03:43;;;;;;;64.88;30.20;;;14.00;99.90;;;;;;5020488;28;20096;-58
2022/06/09 03:06:09;;;;;;;64.78;29.52;;;14.00;99.90;;;;;;5021455;28;20038;-57
2022/06/09 03:08:34;;;;;;;59.50;29.92;;;14.20;99.90;;;;;;5021437;28;20044;-58
2022/06/09 03:11:00;;;;;;;62.20;31.15;;;14.10;99.90;;;;;;5020657;28;20081;-58
2022/06/09 03:13:27;;;;;;;59.80;28.45;;;14.10;99.90;;;;;;5020503;28;20038;-58
2022/06/09 03:15:53;;;;;;;63.50;30.30;;;14.10;99.90;;;;;;5019637;28;20068;-58
2022/06/09 03:18:19;;;;;;;58.85;28.45;;;14.00;99.90;;;;;;5021923;28;20136;-58
2022/06/09 03:20:46;;;;;;;61.92;29.58;;;14.00;99.90;;;;;;5020237;28;20045;-58
2022/06/09 03:23:12;;;;;;;64.13;30.60;;;14.00;99.90;;;;;;5021173;28;20092;-58
2022/06/09 03:25:38;;;;;;;54.33;27.80;;;14.00;99.90;;;;;;5020828;28;20042;-58
2022/06/09 03:28:06;;;;;;;69.13;32.20;;;14.10;99.90;;;;;;5020477;28;20088;-58
2022/06/09 03:30:32;;;;;;;67.72;32.92;;;14.10;99.90;;;;;;5021426;28;20046;-58
2022/06/09 03:32:58;;;;;;;55.72;27.63;;;14.00;99.90;;;;;;5019811;28;20096;-58
2022/06/09 03:35:24;;;;;;;63.80;31.35;;;13.90;99.90;;;;;;5021400;28;20045;-58
2022/06/09 03:37:50;;;;;;;62.08;28.98;;;13.90;99.90;;;;;;5019691;28;20053;-58
2022/06/09 03:40:18;;;;;;;65.78;31.65;;;14.00;99.90;;;;;;5020697;28;20046;-58
2022/06/09 03:42:44;;;;;;;62.28;28.95;;;13.90;99.90;;;;;;5020556;28;20050;-57
2022/06/09 03:45:11;;;;;;;59.45;29.02;;;13.90;99.90;;;;;;5019995;28;20134;-58
2022/06/09 03:47:37;;;;;;;61.42;30.30;;;13.90;99.90;;;;;;5021165;28;20054;-58
2022/06/09 03:50:04;;;;;;;65.22;29.50;;;13.90;99.90;;;;;;5019524;28;20072;-58
2022/06/09 03:52:30;;;;;;;60.00;30.83;;;13.80;99.90;;;;;;5021253;28;20038;-58
2022/06/09 03:54:55;;;;;;;58.25;30.05;;;13.70;99.90;;;;;;5019578;28;20053;-58
2022/06/09 03:57:21;;;;;;;62.75;30.98;;;13.90;99.90;;;;;;5020697;28;20042;-58
2022/06/09 03:59:47;;;;;;;52.45;27.45;;;13.90;99.90;;;;;;5020301;28;20053;-58
2022/06/09 04:02:12;;;;;;;58.85;28.77;;;13.90;99.90;;;;;;5020120;28;20107;-57
2022/06/09 04:04:38;;;;;;;60.17;28.20;;;13.90;99.90;;;;;;5020753;28;20041;-58
2022/06/09 04:07:05;;;;;;;58.63;31.35;;;14.00;99.90;;;;;;5001597;28;20453;-58
2022/06/09 04:09:30;;;;;;;64.85;32.97;;;13.70;99.90;;;;;;5020717;28;20042;-54
2022/06/09 04:11:56;;;;;;;65.38;32.85;;;13.90;99.90;;;;;;5019406;28;20049;-58
2022/06/09 04:14:22;;;;;;;59.85;30.42;;;13.90;99.90;;;;;;5020419;28;20046;-55
2022/06/09 04:16:48;;;;;;;49.40;27.75;;;13.90;99.90;;;;;;5019660;28;20119;-57
2022/06/09 04:19:17;;;;;;;55.90;31.98;;;13.80;99.90;;;;;;5020141;28;20045;-58
2022/06/09 04:21:44;;;;;;;53.22;28.77;;;13.90;99.90;;;;;;5020414;28;20069;-57
2022/06/09 04:24:10;;;;;;;49.60;29.20;;;14.00;99.90;;;;;;5019233;28;20073;-58
2022/06/09 04:26:38;;;;;;;55.65;30.05;;;13.90;99.90;;;;;;5024379;28;20045;-58
2022/06/09 04:29:05;;;;;;;54.80;29.30;;;13.80;99.90;;;;;;5023135;28;20088;-58
2022/06/09 04:31:32;;;;;;;56.00;31.52;;;13.80;99.90;;;;;;5006751;28;20121;-58
2022/06/09 04:33:58;;;;;;;56.33;29.50;;;13.80;99.90;;;;;;5023716;28;20129;-58
2022/06/09 04:36:24;;;;;;;59.05;32.65;;;13.80;99.90;;;;;;5023758;28;20468;-58
2022/06/09 04:38:50;;;;;;;53.47;31.48;;;13.90;99.90;;;;;;5024271;28;20536;-58
2022/06/09 04:41:16;;;;;;;50.30;30.00;;;13.90;99.90;;;;;;5023081;28;20065;-59
2022/06/09 04:43:44;;;;;;;53.08;31.52;;;13.90;99.90;;;;;;5024346;28;20161;-58
2022/06/09 04:46:14;;;;;;;49.20;29.33;;;13.80;99.90;;;;;;5022908;28;20054;-59
2022/06/09 04:48:40;;;;;;;62.92;34.30;;;13.90;99.90;;;;;;5024406;28;20049;-58
2022/06/09 04:51:07;;;;;;;57.38;32.47;;;13.90;99.90;;;;;;5023341;28;20050;-58
2022/06/09 04:53:33;;;;;;;54.20;31.98;;;13.90;99.90;;;;;;5023604;28;20551;-58
2022/06/09 04:55:59;;;;;;;57.40;33.42;;;13.80;99.90;;;;;;5024108;28;20106;-58
2022/06/09 04:58:26;;;;;;;56.63;30.50;;;13.90;99.90;;;;;;5022914;28;20107;-57
2022/06/09 05:00:52;;;;;;;48.80;29.88;;;13.90;99.90;;;;;;5006802;28;20052;-58
2022/06/09 05:03:19;;;;;;;45.70;27.92;;;13.80;99.90;;;;;;5022503;28;20437;-58
2022/06/09 05:05:48;;;;;;;48.50;28.85;;;13.80;99.90;;;;;;5023859;28;20053;-58
2022/06/09 05:08:15;;;;;;;51.45;33.15;;;14.00;99.90;;;;;;5023030;28;20661;-57
2022/06/09 05:10:42;;;;;;;58.55;33.13;;;13.90;99.90;;;;;;5023205;28;20057;-56
2022/06/09 05:13:09;;;;;;;53.15;31.80;;;14.00;99.90;;;;;;5023586;28;20072;-58
2022/06/09 05:15:56;;;;;;;52.15;30.95;;;13.90;99.90;;;;;;5021928;28;20062;-58
2022/06/09 05:18:29;;;;;;;54.17;31.23;;;14.00;99.90;;;;;;5023880;28;20042;-58
2022/06/09 05:20:57;;;;;;;47.08;28.75;;;14.10;99.90;;;;;;5022699;28;20113;-58
2022/06/09 05:23:24;;;;;;;52.15;30.50;;;14.00;99.90;;;;;;5023024;28;20060;-58
2022/06/09 05:25:51;;;;;;;59.08;35.42;;;14.20;99.90;;;;;;5023349;28;20041;-59
2022/06/09 05:28:19;;;;;;;59.78;36.63;;;14.20;99.90;;;;;;5022266;28;20045;-59
2022/06/09 05:30:45;;;;;;;56.38;34.45;;;14.20;99.90;;;;;;5023483;28;20049;-59
2022/06/09 05:33:11;;;;;;;57.63;33.83;;;14.30;99.90;;;;;;5021889;28;20096;-58
2022/06/09 05:35:37;;;;;;;54.95;34.20;;;14.20;99.90;;;;;;5023604;28;20096;-59
2022/06/09 05:46:17;;;;;;;47.03;28.67;;;14.50;99.90;;;;;;5021997;28;20124;-59
2022/06/09 05:48:44;;;;;;;45.67;30.83;;;14.40;99.90;;;;;;5023300;28;20441;-58
2022/06/09 05:51:11;;;;;;;47.58;29.25;;;14.20;99.90;;;;;;5022454;28;20081;-58
2022/06/09 05:53:36;;;;;;;49.50;31.52;;;14.40;99.90;;;;;;5022239;28;20042;-58
2022/06/09 05:56:04;;;;;;;43.95;28.70;;;14.30;99.90;;;;;;5023125;28;20049;-58
2022/06/09 05:58:29;;;;;;;41.95;28.98;;;14.40;99.90;;;;;;5021410;28;20041;-58
2022/06/09 06:00:55;;;;;;;43.80;29.42;;;14.30;99.90;;;;;;5023162;28;20050;-58
2022/06/09 06:03:21;;;;;;;42.65;30.13;;;14.30;99.90;;;;;;5021361;28;20106;-58
2022/06/09 06:08:30;;;;;;;43.70;27.55;;;14.30;99.90;;;;;;5022439;28;20052;-58
2022/06/09 06:10:56;;;;;;;41.03;27.80;;;14.30;99.90;;;;;;5021799;28;20042;-58
2022/06/09 06:13:23;;;;;;;40.25;27.85;;;14.40;99.90;;;;;;5022850;28;20042;-58
2022/06/09 06:15:49;;;;;;;43.88;29.00;;;14.50;99.90;;;;;;5020883;28;20049;-59
2022/06/09 06:18:15;;;;;;;37.88;25.98;;;14.50;99.90;;;;;;5022849;28;20049;-58
2022/06/09 06:20:41;;;;;;;39.72;27.88;;;14.60;99.90;;;;;;5021096;28;20041;-58
2022/06/09 06:23:07;;;;;;;44.42;28.20;;;14.60;99.90;;;;;;5022189;28;20096;-59
2022/06/09 06:25:33;;;;;;;38.80;27.30;;;14.60;99.90;;;;;;5021746;28;20111;-58
2022/06/09 06:27:59;;;;;;;37.95;26.75;;;14.80;99.90;;;;;;5021292;28;20169;-58
2022/06/09 06:30:25;;;;;;;37.85;26.48;;;14.70;99.90;;;;;;5022410;28;20147;-57
2022/06/09 06:32:50;;;;;;;25.83;19.92;;;14.80;99.90;;;;;;5020714;28;20109;-58
2022/06/09 06:35:16;;;;;;;31.10;21.20;;;14.80;99.90;;;;;;5022391;28;20050;-59
2022/06/09 06:37:42;;;;;;;29.90;21.88;;;14.80;99.90;;;;;;5020825;28;20161;-58
2022/06/09 06:40:12;;;;;;;31.65;23.80;;;15.00;99.90;;;;;;5022035;28;20038;-59
2022/06/09 06:42:38;;;;;;;28.05;20.45;;;15.00;99.90;;;;;;5021542;28;20046;-59
2022/06/09 06:45:05;;;;;;;25.85;17.45;;;15.00;99.90;;;;;;5020877;28;20133;-59
2022/06/09 06:47:31;;;;;;;30.83;21.10;;;15.10;99.90;;;;;;5022150;28;20099;-58
2022/06/09 06:49:56;;;;;;;26.25;19.05;;;15.20;99.90;;;;;;5020619;28;20045;-59
2022/06/09 06:52:22;;;;;;;22.42;16.55;;;15.10;99.90;;;;;;5022133;28;20397;-59
2022/06/09 06:54:49;;;;;;;21.55;14.68;;;15.20;99.90;;;;;;5020442;28;20490;-57
2022/06/09 06:57:14;;;;;;;19.15;13.50;;;15.30;99.90;;;;;;5021757;28;20058;-58
2022/06/09 06:59:41;;;;;;;19.33;12.75;;;15.20;99.90;;;;;;5021104;28;20129;-58
2022/06/09 07:02:11;;;;;;;20.60;13.98;;;15.30;99.90;;;;;;5021081;28;20097;-58
2022/06/09 07:04:36;;;;;;;23.35;16.40;;;15.40;99.90;;;;;;5021369;28;20054;-58
2022/06/09 07:07:02;;;;;;;20.63;15.25;;;15.50;99.90;;;;;;5020432;28;20050;-58
2022/06/09 07:09:28;;;;;;;21.70;14.38;;;15.70;99.90;;;;;;5021893;28;20033;-58
2022/06/09 07:11:53;;;;;;;23.00;15.80;;;15.70;99.90;;;;;;5020137;28;20038;-58
2022/06/09 07:14:19;;;;;;;19.90;14.43;;;15.90;99.90;;;;;;5021472;28;20088;-58
2022/06/09 07:16:45;;;;;;;20.15;12.85;;;16.00;99.90;;;;;;5020632;28;20049;-58
2022/06/09 07:19:11;;;;;;;13.00;8.98;;;15.90;99.90;;;;;;5020536;28;20049;-58
2022/06/09 07:21:37;;;;;;;12.60;8.20;;;15.80;99.90;;;;;;5021522;28;20471;-58
2022/06/09 07:24:03;;;;;;;12.45;7.20;;;15.90;99.90;;;;;;5019962;28;20073;-58
2022/06/09 07:26:28;;;;;;;12.93;7.90;;;16.00;99.90;;;;;;5021670;28;20045;-58
2022/06/09 07:28:54;;;;;;;10.95;6.45;;;16.10;99.90;;;;;;5019658;28;20050;-58
2022/06/09 07:31:20;;;;;;;13.35;6.88;;;16.10;99.90;;;;;;5021503;28;20121;-58
2022/06/09 07:33:46;;;;;;;12.45;7.15;;;16.30;99.90;;;;;;5019976;28;20046;-58
2022/06/09 07:36:18;;;;;;;12.18;6.57;;;16.40;99.90;;;;;;5020970;28;20069;-58
2022/06/09 07:38:44;;;;;;;10.85;6.30;;;16.70;99.90;;;;;;5003284;28;20456;-58
2022/06/09 07:41:11;;;;;;;10.68;6.78;;;16.60;99.90;;;;;;5019849;28;20101;-58
2022/06/09 07:43:36;;;;;;;11.15;6.45;;;16.60;99.90;;;;;;5021000;28;20045;-58
2022/06/09 07:46:02;;;;;;;9.48;4.90;;;16.50;99.90;;;;;;5001909;28;20044;-58
2022/06/09 07:48:28;;;;;;;10.57;5.45;;;16.50;99.90;;;;;;5021222;28;20045;-59
2022/06/09 07:50:54;;;;;;;8.00;4.95;;;16.60;99.90;;;;;;5019751;28;20580;-58
2022/06/09 07:53:21;;;;;;;9.05;4.32;;;16.60;99.90;;;;;;5020685;28;20042;-59
2022/06/09 07:55:48;;;;;;;12.00;4.97;;;16.70;99.90;;;;;;5020686;28;20129;-59
2022/06/09 07:58:15;;;;;;;7.95;4.32;;;16.70;99.90;;;;;;5002195;28;20129;-59
2022/06/09 08:00:41;;;;;;;9.40;4.53;;;16.80;99.90;;;;;;5020338;28;20045;-59
2022/06/09 08:03:07;;;;;;;10.63;4.47;;;16.80;99.90;;;;;;5019349;28;20073;-58
2022/06/09 08:05:33;;;;;;;9.30;3.85;;;17.00;99.90;;;;;;5020721;28;20088;-59
2022/06/09 08:07:59;;;;;;;10.18;3.95;;;17.00;99.90;;;;;;5019716;28;20073;-58
2022/06/09 08:10:27;;;;;;;8.43;3.67;;;17.10;99.90;;;;;;5020152;28;20494;-59
2022/06/09 08:12:57;;;;;;;7.18;3.10;;;17.40;99.90;;;;;;5020597;28;20184;-58
2022/06/09 08:15:24;;;;;;;7.85;2.78;;;17.30;99.90;;;;;;5018822;28;20057;-58
2022/06/09 08:17:52;;;;;;;9.02;2.38;;;17.10;99.90;;;;;;5021000;28;20207;-58
2022/06/09 08:20:17;;;;;;;8.70;2.40;;;17.30;99.90;;;;;;5019144;28;20034;-58
2022/06/09 08:22:43;;;;;;;10.48;2.30;;;17.40;99.90;;;;;;5020812;28;20042;-58
2022/06/09 08:25:12;;;;;;;6.80;2.08;;;17.40;99.90;;;;;;5001874;28;20056;-58
2022/06/09 08:27:39;;;;;;;8.15;2.03;;;17.50;99.90;;;;;;5020349;28;20038;-59
2022/06/09 08:30:08;;;;;;;6.68;1.90;;;17.60;99.90;;;;;;5020353;28;20401;-59
2022/06/09 08:32:34;;;;;;;8.00;2.00;;;17.30;99.90;;;;;;5019395;28;20106;-59
2022/06/09 08:35:00;;;;;;;6.95;2.17;;;17.50;99.90;;;;;;5020609;28;20073;-59
2022/06/09 08:37:25;;;;;;;6.35;2.08;;;17.70;99.90;;;;;;5019320;28;20057;-59
2022/06/09 08:39:52;;;;;;;5.22;1.63;;;17.40;99.90;;;;;;5020388;28;20101;-59
2022/06/09 08:42:21;;;;;;;6.07;1.63;;;17.40;99.90;;;;;;5019704;28;20045;-58
2022/06/09 08:45:33;;;;;;;4.90;1.58;;;17.60;99.90;;;;;;5019598;28;20059;-58
2022/06/09 08:48:00;;;;;;;6.50;1.92;;;17.70;99.90;;;;;;5015939;28;20054;-59
2022/06/09 08:50:35;;;;;;;10.38;2.78;;;17.70;99.90;;;;;;5018939;28;20088;-58
2022/06/09 08:53:27;;;;;;;9.40;1.90;;;17.80;99.90;;;;;;5020159;28;20461;-59
2022/06/09 08:56:02;;;;;;;6.75;1.85;;;17.60;99.90;;;;;;5019927;28;20073;-59
2022/06/09 08:58:40;;;;;;;7.25;2.15;;;17.80;99.90;;;;;;5018732;28;20052;-59
2022/06/09 09:01:09;;;;;;;10.32;2.40;;;17.90;99.90;;;;;;5020220;28;20049;-59
2022/06/09 09:03:40;;;;;;;8.43;2.42;;;17.90;99.90;;;;;;5018853;28;20441;-58
2022/06/09 09:06:29;;;;;;;8.02;1.52;;;17.80;99.90;;;;;;5019745;28;20077;-59
2022/06/09 09:09:17;;;;;;;7.82;1.80;;;18.20;99.90;;;;;;5019944;28;20037;-59
2022/06/09 09:12:08;;;;;;;7.20;1.60;;;18.30;99.90;;;;;;5002831;28;20034;-59
2022/06/09 09:15:02;;;;;;;6.60;1.70;;;18.10;99.90;;;;;;5023182;28;20046;-58
2022/06/09 09:17:40;;;;;;;5.53;1.45;;;18.20;99.90;;;;;;5023940;28;20049;-58
2022/06/09 09:20:31;;;;;;;7.18;1.88;;;18.10;99.90;;;;;;5022076;28;20070;-58
2022/06/09 09:23:17;;;;;;;7.47;1.90;;;18.40;99.90;;;;;;5023155;28;20779;-59
2022/06/09 09:25:49;;;;;;;8.75;2.25;;;18.20;99.90;;;;;;5023007;28;20059;-58
2022/06/09 09:28:41;;;;;;;8.48;1.70;;;18.10;99.90;;;;;;5022050;28;20041;-58
2022/06/09 09:31:25;;;;;;;7.97;1.52;;;18.10;99.90;;;;;;5019053;28;20073;-58
2022/06/09 09:33:51;;;;;;;8.25;2.03;;;18.20;99.90;;;;;;5022320;28;20046;-58
2022/06/09 09:36:30;;;;;;;8.70;1.88;;;18.00;99.90;;;;;;5022531;28;20053;-59
2022/06/09 09:39:02;;;;;;;6.55;1.65;;;17.90;99.90;;;;;;5023332;28;20046;-58
2022/06/09 09:41:37;;;;;;;6.85;1.75;;;18.00;99.90;;;;;;5003897;28;20042;-59
2022/06/09 09:44:14;;;;;;;9.13;2.08;;;18.50;99.90;;;;;;5022706;28;20038;-58
2022/06/09 09:46:41;;;;;;;7.90;1.80;;;18.60;99.90;;;;;;5022277;28;20054;-58
2022/06/09 09:49:20;;;;;;;7.65;1.92;;;18.40;99.90;;;;;;5021928;28;20038;-58
2022/06/09 09:51:46;;;;;;;8.50;1.70;;;18.30;99.90;;;;;;5023050;28;20046;-58
2022/06/09 09:54:39;;;;;;;6.53;1.70;;;18.10;99.90;;;;;;5021639;28;20041;-59
2022/06/09 09:57:16;;;;;;;8.48;2.20;;;18.30;99.90;;;;;;5018644;28;20096;-57
2022/06/09 09:59:49;;;;;;;8.35;1.90;;;18.20;99.90;;;;;;5021828;28;20077;-59
2022/06/09 10:08:39;;;;;;;10.02;1.98;;;18.70;99.90;;;;;;5021653;28;20107;-57
2022/06/09 10:14:24;;;;;;;8.10;1.83;;;18.80;99.90;;;;;;5022462;28;20070;-56
2022/06/09 10:16:52;;;;;;;8.57;1.70;;;18.80;99.90;;;;;;5022013;28;20056;-58
2022/06/09 10:19:25;;;;;;;6.15;1.30;;;19.10;99.90;;;;;;5021717;28;20113;-58
2022/06/09 10:21:54;;;;;;;7.13;1.55;;;19.10;99.90;;;;;;5022661;28;20110;-58
2022/06/09 10:24:27;;;;;;;8.90;1.88;;;18.90;99.90;;;;;;5020581;28;20577;-59
2022/06/09 10:26:56;;;;;;;5.50;1.52;;;18.70;99.90;;;;;;5022749;28;20065;-59
2022/06/09 10:29:33;;;;;;;10.45;1.58;;;18.60;99.90;;;;;;5021500;28;20053;-58
2022/06/09 10:32:25;;;;;;;7.22;2.00;;;18.60;99.90;;;;;;5003824;28;20057;-58
2022/06/09 10:35:04;;;;;;;7.53;1.60;;;19.10;99.90;;;;;;5022630;28;20133;-59
2022/06/09 10:37:45;;;;;;;5.15;1.30;;;19.10;99.90;;;;;;5020868;28;20042;-59
2022/06/09 10:40:19;;;;;;;6.25;1.80;;;19.30;99.90;;;;;;5022015;28;20084;-59
2022/06/09 10:43:07;;;;;;;7.60;1.48;;;19.30;99.90;;;;;;5021747;28;20536;-59
2022/06/09 10:45:45;;;;;;;10.75;2.10;;;18.90;99.90;;;;;;5020478;28;20062;-60
2022/06/09 10:57:05;;;;;;;8.85;1.80;;;19.00;99.90;;;;;;5022117;28;20052;-60
2022/06/09 10:59:50;;;;;;;11.48;2.05;;;18.90;99.90;;;;;;5021267;28;20037;-59
2022/06/09 11:02:21;;;;;;;7.18;1.70;;;19.00;99.90;;;;;;5020757;28;20164;-61
2022/06/09 11:04:48;;;;;;;9.70;1.90;;;18.80;99.90;;;;;;5021940;28;20081;-59
2022/06/09 11:07:33;;;;;;;9.07;1.92;;;18.50;99.90;;;;;;5020066;28;20469;-59
2022/06/09 11:10:32;;;;;;;7.00;1.83;;;18.60;99.90;;;;;;5021638;28;20061;-59
2022/06/09 11:13:24;;;;;;;5.72;2.33;;;18.40;99.90;;;;;;5021717;28;20077;-59
2022/06/09 11:15:56;;;;;;;11.63;1.85;;;18.30;99.90;;;;;;5019881;28;20062;-58
2022/06/09 11:18:32;;;;;;;8.13;1.40;;;18.60;99.90;;;;;;5021535;28;20133;-59
2022/06/09 11:21:21;;;;;;;7.80;1.60;;;18.40;99.90;;;;;;5020853;28;20050;-59
2022/06/09 11:24:02;;;;;;;8.85;1.55;;;18.40;99.90;;;;;;5020026;28;20073;-60
2022/06/09 11:26:42;;;;;;;9.27;1.63;;;18.80;99.90;;;;;;5021547;28;20077;-60
2022/06/09 11:29:08;;;;;;;5.78;1.20;;;19.00;99.90;;;;;;5020028;28;20077;-60
2022/06/09 11:32:02;;;;;;;5.15;1.23;;;19.30;99.90;;;;;;5020901;28;20085;-60
2022/06/09 11:34:36;;;;;;;6.53;1.65;;;19.30;99.90;;;;;;5020346;28;20050;-59
2022/06/09 11:37:29;;;;;;;6.85;1.55;;;19.50;99.90;;;;;;5019749;28;20042;-60
2022/06/09 11:40:16;;;;;;;10.27;1.60;;;19.50;99.90;;;;;;5021155;28;20057;-60
2022/06/09 11:43:06;;;;;;;6.47;1.63;;;19.30;99.90;;;;;;5020543;28;20045;-60
2022/06/09 11:45:58;;;;;;;6.57;1.20;;;19.10;99.90;;;;;;5019166;28;20108;-59
2022/06/09 11:48:30;;;;;;;5.20;1.15;;;19.10;99.90;;;;;;5009848;28;20114;-60
2022/06/09 11:50:57;;;;;;;7.22;1.50;;;18.80;99.90;;;;;;5019974;28;20490;-59
2022/06/09 11:53:30;;;;;;;3.97;1.00;;;19.00;99.90;;;;;;5020285;28;20057;-60
2022/06/09 11:56:33;;;;;;;6.45;1.50;;;19.40;99.90;;;;;;5020853;28;20060;-60
2022/06/09 11:59:11;;;;;;;6.53;1.48;;;19.40;99.90;;;;;;5019478;28;20060;-60
2022/06/09 12:01:39;;;;;;;7.45;1.20;;;19.40;99.90;;;;;;5020748;28;20074;-59
2022/06/09 12:04:30;;;;;;;6.45;1.48;;;19.40;99.90;;;;;;5020429;28;20052;-59
2022/06/09 12:07:17;;;;;;;7.80;1.65;;;19.80;99.90;;;;;;5019283;28;20050;-60
2022/06/09 12:10:00;;;;;;;8.10;1.55;;;19.50;99.90;;;;;;5020774;28;20541;-59
2022/06/09 12:12:29;;;;;;;7.50;2.83;;;19.30;99.90;;;;;;5020130;28;20679;-60
2022/06/09 12:15:31;;;;;;;6.53;2.10;;;18.80;99.90;;;;;;5019205;28;20060;-58
2022/06/09 12:18:12;;;;;;;;;;;18.60;99.90;;;;;;5021566;28;20100;-59
2022/06/09 12:20:46;;;;;;;7.30;2.17;;;19.30;99.90;;;;;;5019610;28;19921;-58
2022/06/09 12:23:34;;;;;;;6.45;1.10;;;19.30;99.90;;;;;;5019974;28;20073;-59
2022/06/09 12:26:12;;;;;;;5.32;1.38;;;19.20;99.90;;;;;;5020734;28;20038;-59
2022/06/09 12:28:49;;;;;;;5.25;1.45;;;19.20;99.90;;;;;;5018908;28;20061;-59
2022/06/09 12:31:18;;;;;;;6.60;1.40;;;19.40;99.90;;;;;;5020481;28;20073;-59
2022/06/09 12:34:21;;;;;;;7.43;1.70;;;19.10;99.90;;;;;;5019603;28;20064;-59
2022/06/09 12:36:47;;;;;;;6.63;1.55;;;18.70;99.90;;;;;;5018640;28;20059;-60
2022/06/09 12:39:38;;;;;;;8.93;1.50;;;18.70;99.90;;;;;;5020640;28;20069;-60
2022/06/09 12:42:16;;;;;;;6.72;1.58;;;18.50;99.90;;;;;;5019075;28;20042;-59
2022/06/09 12:44:49;;;;;;;8.43;2.00;;;18.40;99.90;;;;;;5019661;28;20172;-59
2022/06/09 12:47:24;;;;;;;8.32;1.70;;;18.70;99.90;;;;;;5023294;28;20125;-60
2022/06/09 12:49:56;;;;;;;7.22;1.92;;;18.80;99.90;;;;;;5022717;28;20100;-58
2022/06/09 12:52:27;;;;;;;8.68;2.00;;;19.10;99.90;;;;;;5024437;28;20112;-59
2022/06/09 12:54:59;;;;;;;6.97;1.80;;;19.00;99.90;;;;;;5022907;28;20520;-60
2022/06/09 12:57:28;;;;;;;;;;;18.60;99.90;;;;;;5024338;28;20098;-59
2022/06/09 13:00:18;;;;;;;9.95;2.03;;;18.50;99.90;;;;;;5023932;28;19932;-59
2022/06/09 13:02:45;;;;;;;7.10;2.00;;;18.40;99.90;;;;;;5022680;28;20053;-59
2022/06/09 13:05:15;;;;;;;8.68;2.28;;;18.30;99.90;;;;;;5024120;28;20095;-59
2022/06/09 13:08:13;;;;;;;8.07;1.95;;;18.20;99.90;;;;;;5022750;28;20069;-60
2022/06/09 13:10:43;;;;;;;7.63;2.55;;;18.00;99.90;;;;;;5022832;28;20085;-60
2022/06/09 13:13:18;;;;;;;8.82;2.13;;;18.00;99.90;;;;;;5023805;28;20133;-60
2022/06/09 13:15:48;;;;;;;9.40;2.83;;;17.90;99.90;;;;;;5021922;28;20058;-60
2022/06/09 13:18:21;;;;;;;8.27;1.88;;;18.10;99.90;;;;;;5023853;28;20080;-60
2022/06/09 13:20:57;;;;;;;7.05;1.73;;;18.60;99.90;;;;;;5022674;28;20038;-59
2022/06/09 13:23:24;;;;;;;8.02;2.20;;;18.80;99.90;;;;;;5022923;28;20038;-60
2022/06/09 13:25:50;;;;;;;7.30;1.90;;;18.70;99.90;;;;;;5023609;28;20050;-60
2022/06/09 13:28:35;;;;;;;10.20;1.73;;;18.60;99.90;;;;;;5022231;28;20045;-58